Welcome to Northern Hawkes Bay. New Zealand.
PWS Header
      nz Flag



Hit Counter


W3C Valid W3C Valid logo


    Wairoa

Select any of the Stations below to visit their websites.










Historic Data from Weather Underground
Select the location of interest below. Wairoa is the default. Please have patience, this Data is slow to load in.
Northern Hawkes Bay Historical Data
Daily Summary for March 30, 2017 Units:  English    Metric   Both
« Previous Day
Next Day »
Daily Weekly Monthly Yearly Custom
  High: Low: Average:
Temperature: 81.9 °F 55.8 °F 66.9 °F
Dew Point: 68.5 °F 55.6 °F 60.4 °F
Humidity: 99% 44% 82%
Wind Speed: 6mph 0mph 1mph
Wind Gust: 9.2mph - -
Wind- - SSW
Pressure: 30.1 in 30 in -
Precipitation: 0 in    
Historical Graphs
 
 
Tabular Data for March 30, 2017
Time Temperature Dew Point Pressure Wind Wind Speed Wind Gust Humidity Rainfall Rate (Hourly) solar
00:01 76.8 °F 65.5 °F 30 in SW 3.8 mph 6 mph 68% 0 in 79 W/m2
00:07 74.8 °F 65.1 °F 30 in SW 3.1 mph 6.9 mph 72% 0 in 95 W/m2
00:13 74.3 °F 65.1 °F 30 in Calm   6.9 mph 73% 0 in 122 W/m2
00:19 75.2 °F 66 °F 30 in SW 3.1 mph 4.5 mph 73% 0 in 250 W/m2
00:25 77.9 °F 66.9 °F 30 in South 3.1 mph 5.4 mph 69% 0 in 270 W/m2
00:31 80.6 °F 66 °F 30 in South 1.6 mph 5.4 mph 61% 0 in 149 W/m2
00:37 78.6 °F 64.9 °F 30 in SSE 2.2 mph 5.4 mph 63% 0 in 91 W/m2
00:43 76.5 °F 66 °F 30 in South 3.1 mph 6 mph 70% 0 in 53 W/m2
00:49 74.8 °F 66 °F 30 in South 3.1 mph 6 mph 74% 0 in 62 W/m2
00:55 73.9 °F 66.4 °F 30 in SSW 0.7 mph 5.4 mph 77% 0 in 84 W/m2
01:01 74.7 °F 67.5 °F 30 in South 2.2 mph 5.4 mph 78% 0 in 110 W/m2
01:07 74.8 °F 67.3 °F 30 in South 4.5 mph 5.4 mph 77% 0 in 80 W/m2
01:13 74.7 °F 66.9 °F 30 in South 1.6 mph 5.4 mph 77% 0 in 71 W/m2
01:17 75.9 °F 67.8 °F 30 in South 1.6 mph 5.4 mph 76% 0 in 59 W/m2
01:23 77.5 °F 68.2 °F 30 in Calm   4.5 mph 73% 0 in 46 W/m2
01:29 78.4 °F 67.5 °F 30 in Calm     69% 0 in 30 W/m2
01:35 78.6 °F 68.5 °F 30 in Calm     71% 0 in 32 W/m2
01:41 78.1 °F 66.7 °F 30 in Calm     68% 0 in 22 W/m2
01:47 75.2 °F 66.4 °F 30 in Calm     74% 0 in 18 W/m2
01:53 74.7 °F 66.6 °F 30 in Calm     76% 0 in 13 W/m2
01:59 73 °F 64.8 °F 30 in Calm     75% 0 in 9 W/m2
02:05 72 °F 64.4 °F 30 in Calm     77% 0 in 4 W/m2
02:11 71.1 °F 64.9 °F 30 in Calm     81% 0 in 1 W/m2
02:17 70.7 °F 64.9 °F 30 in Calm     82% 0 in 0 W/m2
02:23 70.3 °F 64.9 °F 30 in Calm     83% 0 in 0 W/m2
02:29 70 °F 64.9 °F 30 in Calm     84% 0 in 0 W/m2
02:35 69.4 °F 64.8 °F 30 in Calm     85% 0 in 0 W/m2
02:41 69.3 °F 64.9 °F 30 in Calm     86% 0 in 0 W/m2
02:47 68.7 °F 64.8 °F 30 in Calm     87% 0 in 0 W/m2
02:53 68.5 °F 64.6 °F 30 in Calm     87% 0 in 0 W/m2
02:59 68.4 °F 64.9 °F 30 in Calm     89% 0 in 0 W/m2
03:05 68.2 °F 65.1 °F 30 in Calm     90% 0 in 0 W/m2
03:11 68 °F 64.9 °F 30 in Calm     90% 0 in 0 W/m2
03:17 67.8 °F 65.5 °F 30.1 in Calm     92% 0 in 0 W/m2
03:24 67.6 °F 65.3 °F 30.1 in Calm     92% 0 in 0 W/m2
03:30 67.5 °F 65.1 °F 30.1 in Calm     92% 0 in 0 W/m2
03:35 67.3 °F 65.1 °F 30.1 in Calm     93% 0 in 0 W/m2
03:41 67.1 °F 65.3 °F 30.1 in Calm     94% 0 in 0 W/m2
03:47 67.1 °F 65.3 °F 30.1 in Calm     94% 0 in 0 W/m2
03:53 66.9 °F 65.1 °F 30.1 in Calm     94% 0 in 0 W/m2
04:00 66.6 °F 64.8 °F 30.1 in Calm     94% 0 in 0 W/m2
04:05 66.2 °F 64.4 °F 30.1 in Calm     94% 0 in 0 W/m2
04:11 66 °F 64.6 °F 30.1 in Calm     95% 0 in 0 W/m2
04:17 65.7 °F 64.2 °F 30.1 in Calm     95% 0 in 0 W/m2
04:23 65.3 °F 64.2 °F 30.1 in Calm     96% 0 in 0 W/m2
04:29 65.1 °F 64 °F 30.1 in Calm     96% 0 in 0 W/m2
04:35 64.9 °F 63.9 °F 30.1 in Calm     96% 0 in 0 W/m2
04:41 64.9 °F 63.9 °F 30.1 in Calm     96% 0 in 0 W/m2
04:47 64.8 °F 63.7 °F 30.1 in Calm     96% 0 in 0 W/m2
04:53 64.8 °F 63.7 °F 30.1 in Calm     96% 0 in 0 W/m2
04:59 64.6 °F 63.3 °F 30.1 in Calm   3.8 mph 96% 0 in 0 W/m2
05:05 64.8 °F 63.7 °F 30.1 in Calm   3.8 mph 96% 0 in 0 W/m2
05:11 65.1 °F 63.3 °F 30.1 in Calm     94% 0 in 0 W/m2
05:17 65.3 °F 63 °F 30.1 in Calm   3.8 mph 92% 0 in 0 W/m2
05:23 65.5 °F 62.4 °F 30.1 in Calm   4.5 mph 90% 0 in 0 W/m2
05:29 65.5 °F 62.2 °F 30.1 in Calm   3.8 mph 89% 0 in 0 W/m2
05:35 65.3 °F 62.1 °F 30.1 in Calm   3.8 mph 89% 0 in 0 W/m2
05:41 65.1 °F 61.5 °F 30.1 in NNW 1.6 mph 3.8 mph 88% 0 in 0 W/m2
05:47 64.9 °F 61.3 °F 30.1 in Calm   3.8 mph 88% 0 in 0 W/m2
05:53 64.9 °F 61.3 °F 30.1 in Calm   3.8 mph 88% 0 in 0 W/m2
05:59 64.8 °F 61.2 °F 30.1 in Calm   0.7 mph 88% 0 in 0 W/m2
06:05 64.6 °F 61 °F 30.1 in Calm     88% 0 in 0 W/m2
06:11 64.4 °F 60.8 °F 30.1 in Calm     88% 0 in 0 W/m2
06:17 64 °F 60.4 °F 30.1 in Calm     88% 0 in 0 W/m2
06:23 63.7 °F 60.1 °F 30.1 in Calm     88% 0 in 0 W/m2
06:29 63.3 °F 59.7 °F 30.1 in Calm     88% 0 in 0 W/m2
06:35 63.1 °F 59.9 °F 30.1 in Calm     89% 0 in 0 W/m2
06:41 63 °F 59.7 °F 30.1 in Calm     89% 0 in 0 W/m2
06:47 63 °F 60.1 °F 30.1 in Calm     90% 0 in 0 W/m2
06:53 62.8 °F 59.7 °F 30.1 in Calm     90% 0 in 0 W/m2
06:59 62.6 °F 59.5 °F 30.1 in Calm     90% 0 in 0 W/m2
07:05 62.4 °F 60.1 °F 30.1 in Calm     92% 0 in 0 W/m2
07:11 62.2 °F 59.9 °F 30.1 in Calm     92% 0 in 0 W/m2
07:17 62.1 °F 59.7 °F 30.1 in Calm     92% 0 in 0 W/m2
07:23 61.7 °F 59.4 °F 30.1 in Calm     92% 0 in 0 W/m2
07:29 61.5 °F 59.5 °F 30.1 in Calm     93% 0 in 0 W/m2
07:35 61.3 °F 59.4 °F 30.1 in NW 0.7 mph 3.1 mph 93% 0 in 0 W/m2
07:41 61.3 °F 59.5 °F 30.1 in Calm   4.5 mph 94% 0 in 0 W/m2
07:47 61.2 °F 59.4 °F 30.1 in Calm   3.8 mph 94% 0 in 0 W/m2
07:53 61.2 °F 59.4 °F 30.1 in Calm     94% 0 in 0 W/m2
08:00 61.2 °F 59.4 °F 30.1 in Calm     94% 0 in 0 W/m2
08:05 61 °F 59.4 °F 30.1 in Calm     94% 0 in 0 W/m2
08:11 60.6 °F 59.2 °F 30.1 in Calm     95% 0 in 0 W/m2
08:17 60.3 °F 58.8 °F 30.1 in Calm     95% 0 in 0 W/m2
08:23 60.3 °F 58.8 °F 30.1 in Calm     95% 0 in 0 W/m2
08:29 60.3 °F 58.8 °F 30.1 in Calm     95% 0 in 0 W/m2
08:35 60.1 °F 59 °F 30.1 in Calm     96% 0 in 0 W/m2
08:41 59.9 °F 58.8 °F 30.1 in Calm     96% 0 in 0 W/m2
08:47 59.7 °F 58.6 °F 30.1 in Calm     96% 0 in 0 W/m2
08:53 59.7 °F 58.6 °F 30.1 in Calm     96% 0 in 0 W/m2
08:59 59.5 °F 58.5 °F 30.1 in Calm     96% 0 in 0 W/m2
09:05 59.5 °F 58.5 °F 30.1 in Calm     96% 0 in 0 W/m2
09:11 59.5 °F 58.5 °F 30.1 in Calm     96% 0 in 0 W/m2
09:17 59.5 °F 58.6 °F 30.1 in Calm     97% 0 in 0 W/m2
09:23 59.4 °F 58.5 °F 30.1 in Calm     97% 0 in 0 W/m2
09:30 59.2 °F 58.3 °F 30.1 in Calm     97% 0 in 0 W/m2
09:35 59.2 °F 58.3 °F 30.1 in Calm     97% 0 in 0 W/m2
09:41 59 °F 58.3 °F 30.1 in Calm     97% 0 in 0 W/m2
09:47 59.2 °F 58.3 °F 30.1 in Calm     97% 0 in 0 W/m2
09:53 59 °F 58.3 °F 30.1 in Calm     97% 0 in 0 W/m2
09:59 58.8 °F 58.6 °F 30.1 in Calm     99% 0 in 0 W/m2
10:05 58.8 °F 58.6 °F 30.1 in Calm     99% 0 in 0 W/m2
10:25 58.5 °F 58.3 °F 30.1 in Calm     99% 0 in 0 W/m2
10:31 58.5 °F 58.3 °F 30.1 in Calm     99% 0 in 0 W/m2
10:37 58.6 °F 58.5 °F 30.1 in NW 2.2 mph 3.1 mph 99% 0 in 0 W/m2
10:43 58.6 °F 58.5 °F 30.1 in Calm   3.1 mph 99% 0 in 0 W/m2
10:49 58.8 °F 58.6 °F 30.1 in Calm   0.7 mph 99% 0 in 0 W/m2
10:55 58.6 °F 58.5 °F 30.1 in Calm     99% 0 in 0 W/m2
11:01 58.6 °F 58.5 °F 30.1 in Calm     99% 0 in 0 W/m2
11:07 58.6 °F 58.5 °F 30.1 in Calm     99% 0 in 0 W/m2
11:13 58.5 °F 58.3 °F 30.1 in Calm     99% 0 in 0 W/m2
11:19 58.3 °F 57.9 °F 30.1 in Calm     99% 0 in 0 W/m2
11:25 58.1 °F 57.7 °F 30.1 in Calm     99% 0 in 0 W/m2
11:31 57.9 °F 57.7 °F 30.1 in Calm     99% 0 in 0 W/m2
11:37 57.9 °F 57.7 °F 30.1 in Calm     99% 0 in 0 W/m2
11:43 57.9 °F 57.7 °F 30.1 in Calm     99% 0 in 0 W/m2
11:49 57.7 °F 57.6 °F 30.1 in Calm     99% 0 in 0 W/m2
11:55 57.6 °F 57.4 °F 30.1 in Calm     99% 0 in 0 W/m2
12:03 57.2 °F 56.8 °F 30.1 in Calm     99% 0 in 0 W/m2
12:09 57.2 °F 56.8 °F 30.1 in Calm     99% 0 in 0 W/m2
12:15 57 °F 56.8 °F 30.1 in Calm     99% 0 in 0 W/m2
12:21 56.8 °F 56.7 °F 30.1 in Calm     99% 0 in 0 W/m2
12:39 56.7 °F 56.5 °F 30.1 in Calm     99% 0 in 0 W/m2
12:45 56.5 °F 56.1 °F 30.1 in Calm     99% 0 in 0 W/m2
12:51 56.3 °F 55.9 °F 30.1 in Calm     99% 0 in 0 W/m2
12:57 56.3 °F 55.9 °F 30.1 in Calm     99% 0 in 0 W/m2
13:03 56.1 °F 55.9 °F 30.1 in Calm     99% 0 in 0 W/m2
13:09 56.1 °F 55.9 °F 30.1 in Calm     99% 0 in 0 W/m2
13:15 55.9 °F 55.8 °F 30.1 in Calm     99% 0 in 0 W/m2
13:21 55.9 °F 55.8 °F 30.1 in Calm     99% 0 in 0 W/m2
13:27 55.9 °F 55.8 °F 30.1 in Calm     99% 0 in 0 W/m2
13:33 55.9 °F 55.8 °F 30.1 in Calm     99% 0 in 0 W/m2
13:39 55.8 °F 55.6 °F 30.1 in Calm   2.2 mph 99% 0 in 0 W/m2
13:45 55.8 °F 55.6 °F 30.1 in NW 1.6 mph 3.1 mph 99% 0 in 0 W/m2
13:51 55.8 °F 55.6 °F 30.1 in Calm   3.1 mph 99% 0 in 0 W/m2
13:57 55.9 °F 55.8 °F 30.1 in NW 1.6 mph 3.8 mph 99% 0 in 0 W/m2
14:03 55.9 °F 55.8 °F 30.1 in Calm   4.5 mph 99% 0 in 0 W/m2
14:09 55.8 °F 55.6 °F 30.1 in Calm   4.5 mph 99% 0 in 0 W/m2
14:11 55.8 °F 55.6 °F 30.1 in NW 1.6 mph 4.5 mph 99% 0 in 0 W/m2
14:17 55.9 °F 55.8 °F 30.1 in Calm   4.5 mph 99% 0 in 0 W/m2
14:23 55.9 °F 55.8 °F 30.1 in NNW 2.2 mph 6 mph 99% 0 in 3 W/m2
14:29 55.9 °F 55.8 °F 30.1 in NW 1.6 mph 6 mph 99% 0 in 6 W/m2
14:35 55.9 °F 55.8 °F 30.1 in NW 3.1 mph 4.5 mph 99% 0 in 11 W/m2
14:41 55.9 °F 55.8 °F 30.1 in NNW 0.7 mph 4.5 mph 99% 0 in 14 W/m2
14:47 55.9 °F 55.8 °F 30.1 in NW 2.2 mph 4.5 mph 99% 0 in 17 W/m2
14:53 56.1 °F 55.9 °F 30.1 in Calm   3.8 mph 99% 0 in 81 W/m2
14:59 57 °F 56.8 °F 30.1 in Calm   3.8 mph 99% 0 in 100 W/m2
15:05 57.6 °F 57.4 °F 30.1 in Calm   3.1 mph 99% 0 in 119 W/m2
15:11 58.1 °F 57.7 °F 30.1 in NNW 2.2 mph 4.5 mph 99% 0 in 134 W/m2
15:17 58.5 °F 58.3 °F 30.1 in NNW 1.6 mph 4.5 mph 99% 0 in 157 W/m2
15:23 59.2 °F 58.8 °F 30.1 in Calm   6 mph 99% 0 in 173 W/m2
15:29 59.7 °F 59.5 °F 30.1 in Calm   6 mph 99% 0 in 198 W/m2
15:35 60.6 °F 59.7 °F 30.1 in NW 0.7 mph 6 mph 97% 0 in 220 W/m2
15:41 61 °F 59 °F 30.1 in NW 3.1 mph 5.4 mph 93% 0 in 238 W/m2
15:47 61.3 °F 58.6 °F 30.1 in NW 3.1 mph 5.4 mph 91% 0 in 250 W/m2
15:53 61.9 °F 58.8 °F 30.1 in NW 2.2 mph 5.4 mph 90% 0 in 258 W/m2
15:59 62.4 °F 58.8 °F 30.1 in NW 2.2 mph 6 mph 88% 0 in 265 W/m2
16:05 62.8 °F 58.5 °F 30.1 in Calm   5.4 mph 86% 0 in 282 W/m2
16:11 63 °F 58.5 °F 30.1 in Calm   6 mph 85% 0 in 303 W/m2
16:17 63.3 °F 58.5 °F 30.1 in NNW 3.1 mph 6 mph 84% 0 in 319 W/m2
16:25 64.8 °F 59.2 °F 30.1 in North 1.6 mph 5.4 mph 82% 0 in 323 W/m2
16:31 65.1 °F 58.5 °F 30.1 in North 3.8 mph 6 mph 79% 0 in 326 W/m2
16:37 65.8 °F 59.5 °F 30.1 in Calm   6 mph 80% 0 in 343 W/m2
16:43 66.7 °F 59 °F 30.1 in NNE 0.7 mph 3.8 mph 76% 0 in 348 W/m2
16:49 66.6 °F 58.5 °F 30.1 in NNE 2.2 mph 6 mph 75% 0 in 349 W/m2
16:55 68 °F 59.7 °F 30.1 in Calm   6 mph 75% 0 in 355 W/m2
17:01 68.9 °F 59.5 °F 30.1 in Calm   0.7 mph 72% 0 in 361 W/m2
17:07 69.8 °F 58.8 °F 30.1 in Calm     68% 0 in 369 W/m2
17:13 70.7 °F 60.1 °F 30.1 in Calm     69% 0 in 379 W/m2
17:19 71.1 °F 60.1 °F 30.1 in Calm     68% 0 in 389 W/m2
17:25 70.9 °F 59 °F 30.1 in Calm     66% 0 in 400 W/m2
17:31 71.6 °F 58.8 °F 30.1 in NNW 3.1 mph 3.8 mph 64% 0 in 112 W/m2
17:37 71.1 °F 60.1 °F 30.1 in Calm   3.8 mph 68% 0 in 411 W/m2
17:43 72.5 °F 60.4 °F 30.1 in Calm   3.1 mph 66% 0 in 411 W/m2
17:49 74.5 °F 61.2 °F 30.1 in Calm     63% 0 in 382 W/m2
17:55 75.4 °F 59.5 °F 30.1 in Calm   2.2 mph 58% 0 in 157 W/m2
18:01 74.7 °F 59.4 °F 30.1 in Calm   2.2 mph 59% 0 in 71 W/m2
18:07 77.9 °F 60.4 °F 30.1 in Calm     55% 0 in 66 W/m2
18:13 76.6 °F 59.4 °F 30.1 in Calm     55% 0 in 63 W/m2
18:19 75.7 °F 59.5 °F 30.1 in Calm     57% 0 in 62 W/m2
18:25 76.1 °F 59.7 °F 30.1 in Calm     57% 0 in 65 W/m2
18:31 75.7 °F 59.5 °F 30.1 in Calm     57% 0 in 74 W/m2
18:37 77.4 °F 59.5 °F 30.1 in Calm     54% 0 in 268 W/m2
18:43 77 °F 59.2 °F 30.1 in Calm     54% 0 in 486 W/m2
18:49 77 °F 60.1 °F 30.1 in South 4.5 mph 6 mph 56% 0 in 509 W/m2
18:55 75.2 °F 59.4 °F 30.1 in South 3.8 mph 6 mph 58% 0 in 521 W/m2
19:01 74.1 °F 59.4 °F 30.1 in South 5.4 mph 6.9 mph 60% 0 in 539 W/m2
19:07 73.4 °F 59.5 °F 30.1 in South 4.5 mph 6.9 mph 62% 0 in 546 W/m2
19:13 72.5 °F 59.7 °F 30.1 in South 2.2 mph 6.9 mph 64% 0 in 555 W/m2
19:21 72.3 °F 59 °F 30.1 in South 5.4 mph 6.9 mph 63% 0 in 567 W/m2
19:27 71.8 °F 59 °F 30.1 in South 5.4 mph 7.6 mph 64% 0 in 572 W/m2
19:33 71.8 °F 59.4 °F 30.1 in Calm   7.6 mph 65% 0 in 577 W/m2
19:40 71.8 °F 59.4 °F 30.1 in SSE 3.8 mph 7.6 mph 65% 0 in 574 W/m2
19:45 72.3 °F 59 °F 30.1 in SSE 2.2 mph 6.9 mph 63% 0 in 588 W/m2
19:51 73.2 °F 60.3 °F 30.1 in SSE 3.1 mph 6.9 mph 64% 0 in 594 W/m2
19:57 73.6 °F 61.2 °F 30.1 in South 5.4 mph 6.9 mph 65% 0 in 600 W/m2
20:03 73.4 °F 60.4 °F 30.1 in South 5.4 mph 7.6 mph 64% 0 in 602 W/m2
20:09 73.4 °F 60.4 °F 30.1 in South 4.5 mph 9.2 mph 64% 0 in 602 W/m2
20:15 72.9 °F 59.5 °F 30.1 in South 4.5 mph 9.2 mph 63% 0 in 604 W/m2
20:21 72.7 °F 58.5 °F 30.1 in SSE 3.8 mph 7.6 mph 61% 0 in 602 W/m2
20:27 72.5 °F 58.8 °F 30.1 in SSE 3.1 mph 9.2 mph 62% 0 in 602 W/m2
20:33 73.6 °F 58.8 °F 30.1 in SSE 4.5 mph 9.2 mph 60% 0 in 604 W/m2
20:39 73.9 °F 60.1 °F 30.1 in SSE 5.4 mph 9.2 mph 62% 0 in 608 W/m2
20:45 73.6 °F 59.4 °F 30.1 in SSE 5.4 mph 9.2 mph 61% 0 in 604 W/m2
20:51 73.4 °F 60.1 °F 30.1 in South 6 mph 9.2 mph 63% 0 in 599 W/m2
20:57 73 °F 60.3 °F 30.1 in South 4.5 mph 9.2 mph 64% 0 in 593 W/m2
21:03 73.9 °F 61.5 °F 30.1 in SSE 2.2 mph 9.2 mph 65% 0 in 490 W/m2
21:10 74.8 °F 61.9 °F 30.1 in SSE 2.2 mph 8.3 mph 64% 0 in 223 W/m2
21:15 75.6 °F 62.1 °F 30.1 in SSE 1.6 mph 6 mph 63% 0 in 589 W/m2
21:21 75.7 °F 62.2 °F 30.1 in SSE 3.1 mph 6.9 mph 63% 0 in 583 W/m2
21:27 76.6 °F 63.1 °F 30.1 in SSE 2.2 mph 6.9 mph 63% 0 in 333 W/m2
21:33 77 °F 63 °F 30.1 in SE 0.7 mph 6.9 mph 62% 0 in 149 W/m2
21:39 77 °F 63 °F 30.1 in SE 0.7 mph 6.9 mph 62% 0 in 170 W/m2
21:59 77.4 °F 63 °F 30.1 in SSE 0.7 mph 8.3 mph 61% 0 in 376 W/m2
22:05 77.7 °F 63.7 °F 30.1 in SSE 2.2 mph 7.6 mph 62% 0 in 508 W/m2
22:11 79 °F 63 °F 30.1 in SE 3.1 mph 7.6 mph 58% 0 in 399 W/m2
22:17 78.1 °F 63.1 °F 30.1 in SSE 3.8 mph 6.9 mph 60% 0 in 99 W/m2
22:23 77.5 °F 63.5 °F 30.1 in SSE 5.4 mph 7.6 mph 62% 0 in 62 W/m2
22:29 77.2 °F 62.8 °F 30.1 in SSE 3.8 mph 7.6 mph 61% 0 in 59 W/m2
22:35 77.4 °F 63.9 °F 30.1 in SSE 1.6 mph 6.9 mph 63% 0 in 59 W/m2
22:41 77.9 °F 62.4 °F 30.1 in SSE 0.7 mph 6.9 mph 59% 0 in 61 W/m2
22:47 78.8 °F 62.2 °F 30.1 in SE 0.7 mph 6 mph 57% 0 in 62 W/m2
22:53 79 °F 62.4 °F 30.1 in SE 0.7 mph 5.4 mph 57% 0 in 62 W/m2
22:59 80.2 °F 62.8 °F 30.1 in South 3.1 mph 6 mph 55% 0 in 82 W/m2
23:05 79.9 °F 62.8 °F 30.1 in SE 3.1 mph 7.6 mph 56% 0 in 316 W/m2
23:11 80.4 °F 62.8 °F 30 in ESE 3.1 mph 7.6 mph 55% 0 in 322 W/m2
23:17 79.5 °F 62.1 °F 30 in SE 1.6 mph 7.6 mph 55% 0 in 351 W/m2
23:23 80.8 °F 61 °F 30 in SE 1.6 mph 6.9 mph 51% 0 in 149 W/m2
23:29 80.8 °F 58.1 °F 30 in ESE 1.6 mph 6 mph 46% 0 in 352 W/m2
23:35 79.7 °F 57.7 °F 30 in ESE 3.8 mph 6.9 mph 47% 0 in 334 W/m2
23:41 78.6 °F 57.4 °F 30 in East 1.6 mph 6.9 mph 48% 0 in 314 W/m2
23:47 79 °F 55.9 °F 30 in East 1.6 mph 6.9 mph 45% 0 in 300 W/m2
23:53 80.2 °F 56.5 °F 30 in Calm   6 mph 44% 0 in 277 W/m2
23:59 81.9 °F 57.9 °F 30 in SE 0.7 mph 4.5 mph 44% 0 in 258 W/m2
Northern Hawkes Bay. New Zealand Historic Data
Compliments of Weather Underground - 2 mb